WetterOnline ( https://www.wetteronline.de )

Wetter aktuell Pocking

Aktuelles Wetter: Fürstenzell (480m)

6-stündlich | Neueste Meldungen
Ortszeit Temperatur Wetter
Do, 22.10. 2:00 7.5° C bedeckt
Mi, 21.10. 20:00 8.3° C wolkig
Mi, 21.10. 14:00 11.9° C leicht bewölkt
Mi, 21.10. 8:00 4.7° C Nebel
Mi, 21.10. 2:00 4.2° C Nebel
Di, 20.10. 20:00 7.2° C wolkig
Di, 20.10. 14:00 8.4° C leicht bewölkt
Di, 20.10. 8:00 4.1° C Nebel
Ortszeit Temperatur Wetter
Do, 22.10. 3:30 5.8° C Nebel
Do, 22.10. 3:20 5.8° C Nebel
Do, 22.10. 3:10 5.7° C Nebel
Do, 22.10. 3:00 6.8° C bewölkt
Do, 22.10. 2:50 6.8° C bewölkt
Do, 22.10. 2:40 6.6° C bewölkt
Do, 22.10. 2:30 7.2° C bedeckt
Do, 22.10. 2:00 7.5° C bedeckt
Do, 22.10. 1:30 6.9° C bewölkt
Do, 22.10. 1:00 7.4° C leicht bewölkt
Do, 22.10. 0:30 7.8° C wolkenlos
Ortszeit Relative Feuchte Sichtweite
Do, 22.10. 2:00 93% 5.0 km
Mi, 21.10. 20:00 88% 12 km
Mi, 21.10. 14:00 73% 23 km
Mi, 21.10. 8:00 99% <100 m
Mi, 21.10. 2:00 97% 0.2 km
Di, 20.10. 20:00 93% 8 km
Di, 20.10. 14:00 80% 12 km
Di, 20.10. 8:00 99% 0.4 km
Ortszeit Relative Feuchte Sichtweite
Do, 22.10. 3:30 98% 0.2 km
Do, 22.10. 3:20 98% -
Do, 22.10. 3:10 99% -
Do, 22.10. 3:00 95% 4.5 km
Do, 22.10. 2:50 95% -
Do, 22.10. 2:40 95% -
Do, 22.10. 2:30 94% 4.6 km
Do, 22.10. 2:00 93% 5.0 km
Do, 22.10. 1:30 95% 3.1 km
Do, 22.10. 1:00 92% 5.0 km
Do, 22.10. 0:30 91% 7 km
Ortszeit Niederschlagsmenge Niederschlagsart
Do, 22.10. 2:00 0.0 l/m2 in 6 Std. -
Mi, 21.10. 20:00 0.0 l/m2 in 12 Std. -
Mi, 21.10. 14:00 0.0 l/m2 in 6 Std. -
Mi, 21.10. 8:00 0.0 l/m2 in 12 Std. -
Mi, 21.10. 2:00 0.0 l/m2 in 6 Std. -
Di, 20.10. 20:00 0.0 l/m2 in 12 Std. -
Di, 20.10. 14:00 0.0 l/m2 in 6 Std. -
Di, 20.10. 8:00 0.0 l/m2 in 12 Std. -
Ortszeit Niederschlagsmenge Niederschlagsart
Do, 22.10. 3:30 0.0 l/m2 in 1 Std. -
Do, 22.10. 3:20 keine Meldung -
Do, 22.10. 3:10 keine Meldung -
Do, 22.10. 3:00 0.0 l/m2 in 1 Std. -
Do, 22.10. 2:50 keine Meldung -
Do, 22.10. 2:40 keine Meldung -
Do, 22.10. 2:30 0.0 l/m2 in 1 Std. -
Do, 22.10. 2:00 0.0 l/m2 in 1 Std. -
Do, 22.10. 1:30 0.0 l/m2 in 1 Std. -
Do, 22.10. 1:00 0.0 l/m2 in 1 Std. -
Do, 22.10. 0:30 0.0 l/m2 in 1 Std. -
Ortszeit Stärke Spitze Richtung
km/h Bft. km/h Grad Sektor
Do, 22.10. 2:00 7 2 18 170° S
Mi, 21.10. 20:00 4 1 22 180° S
Mi, 21.10. 14:00 7 2 14 220° SW
Mi, 21.10. 8:00 7 2 13 210° SW
Mi, 21.10. 2:00 7 2 11 20° N
Di, 20.10. 20:00 4 1 11 90° O
Di, 20.10. 14:00 6 1 24 190° S
Di, 20.10. 8:00 11 2 29 110° O
Ortszeit Stärke Spitze Richtung
km/h Bft. km/h Grad Sektor
Do, 22.10. 3:30 13 3 20 240° SW
Do, 22.10. 3:20 13 3 - 240° SW
Do, 22.10. 3:10 11 2 - 240° SW
Do, 22.10. 3:00 7 2 22 190° S
Do, 22.10. 2:50 7 2 - 190° S
Do, 22.10. 2:40 7 2 - 170° S
Do, 22.10. 2:30 11 2 18 150° SO
Do, 22.10. 2:00 7 2 14 170° S
Do, 22.10. 1:30 7 2 11 70° O
Do, 22.10. 1:00 9 2 15 10° N
Do, 22.10. 0:30 11 2 14 300° NW
Ortszeit Untergrenze Bedeckung Gattung
total tief tief mittel hoch
Do, 22.10. 2:00 4500 m 8/8 8/8 - - -
Mi, 21.10. 20:00 10500 m 8/8 0/8 - - -
Mi, 21.10. 14:00 8700 m 6/8 0/8 - - -
Mi, 21.10. 8:00 <30 m 8/8 0/8 - - -
Mi, 21.10. 2:00 <30 m 8/8 0/8 - - -
Di, 20.10. 20:00 9000 m 8/8 0/8 - - -
Di, 20.10. 14:00 8400 m 7/8 0/8 - - -
Di, 20.10. 8:00 <30 m 8/8 0/8 - - -
Ortszeit Bedeckungsgrad in Achtel und Wolkenuntergrenze
Do, 22.10. 3:30 6(<30m) 8(4500m)
Do, 22.10. 3:20 6(<30m) 8(4500m)
Do, 22.10. 3:10 4(<30m) 7(4500m)
Do, 22.10. 3:00 7(4500m) 7(5100m) 7(5100m)
Do, 22.10. 2:50 7(4500m) 7(5100m)
Do, 22.10. 2:40 7(4200m) 7(5100m)
Do, 22.10. 2:30 8(4500m) 8(5100m)
Do, 22.10. 2:00 8(4500m) 8(5100m)
Do, 22.10. 1:30 7(4500m) 7(5400m)
Do, 22.10. 1:00 2(4500m) 3(5100m)
Do, 22.10. 0:30 keine Wolken
Ortszeit Luftdruck NN (hPa) Tendenz (hPa in 3 Std.)
Do, 22.10. 2:00 1018 + 1,1
Mi, 21.10. 20:00 1015 + 0,3
Mi, 21.10. 14:00 1014 + 0,4
Mi, 21.10. 8:00 1014 - 0,9
Mi, 21.10. 2:00 1018 - 0,9
Di, 20.10. 20:00 1018 - 0,6
Di, 20.10. 14:00 1019 - 1,1
Di, 20.10. 8:00 1022 0,0
Ortszeit Luftdruck NN (hPa) Tendenz (hPa in 3 Std.)
Do, 22.10. 3:30 1019 + 0,8
Do, 22.10. 3:20 1019 keine Meldung
Do, 22.10. 3:10 1019 keine Meldung
Do, 22.10. 3:00 1018 + 0,7
Do, 22.10. 2:50 1018 keine Meldung
Do, 22.10. 2:40 1018 keine Meldung
Do, 22.10. 2:30 1018 + 0,6
Do, 22.10. 2:00 1018 + 1,1
Do, 22.10. 1:30 1018 + 1,8
Do, 22.10. 1:00 1018 + 1,7
Do, 22.10. 0:30 1018 + 1,6
Ortszeit Schneehöhe (cm)
Do, 22.10. 2:00 0
Mi, 21.10. 20:00 0
Mi, 21.10. 14:00 0
Mi, 21.10. 8:00 0
Mi, 21.10. 2:00 0
Di, 20.10. 20:00 0
Di, 20.10. 14:00 0
Di, 20.10. 8:00 0
Ortszeit Schneehöhe (cm)
Do, 22.10. 3:30 0
Do, 22.10. 3:20 0
Do, 22.10. 3:10 0
Do, 22.10. 3:00 0
Do, 22.10. 2:50 0
Do, 22.10. 2:40 0
Do, 22.10. 2:30 0
Do, 22.10. 2:00 0
Do, 22.10. 1:30 0
Do, 22.10. 1:00 0
Do, 22.10. 0:30 0
Link zu dieser Seite / Seite empfehlen

Das Wetter in ...